Time;durP1;ratioP1;P1;durP2;ratioP2;P2;SDS_P1;SDS_P2;PMS_P1;PMS_P2;Temp;Humidity;BMP_temperature;BMP_pressure;BME280_temperature;BME280_humidity;BME280_pressure;Samples;Min_cycle;Max_cycle;Signal;HPM_P1;HPM_P2
2023/09/16 00:01:08;;;;;;;7.28;2.55;;;;;;;;;;4974703;28;20219;-81
2023/09/16 00:03:35;;;;;;;6.63;2.35;;;;;;;;;;4974198;28;20092;-82
2023/09/16 00:06:04;;;;;;;4.57;2.42;;;;;;;;;;4974865;28;20053;-82
2023/09/16 00:08:33;;;;;;;4.57;2.30;;;;;;;;;;4977094;28;20034;-81
2023/09/16 00:10:59;;;;;;;4.55;2.45;;;;;;;;;;4973179;28;20125;-81
2023/09/16 00:13:25;;;;;;;4.82;2.33;;;;;;;;;;4960779;28;20034;-82
2023/09/16 00:15:51;;;;;;;4.65;2.33;;;;;;;;;;4959989;28;20075;-82
2023/09/16 00:18:16;;;;;;;4.43;2.30;;;;;;;;;;4976828;28;20050;-81
2023/09/16 00:20:42;;;;;;;4.93;2.22;;;;;;;;;;4975247;28;20047;-82
2023/09/16 00:23:07;;;;;;;5.57;2.42;;;;;;;;;;4972809;28;20520;-82
2023/09/16 00:25:33;;;;;;;4.90;2.60;;;;;;;;;;4972288;28;20352;-82
2023/09/16 00:27:58;;;;;;;4.80;2.55;;;;;;;;;;4975256;28;20039;-82
2023/09/16 00:30:24;;;;;;;5.25;2.88;;;;;;;;;;4974898;28;20038;-81
2023/09/16 00:32:49;;;;;;;3.67;2.05;;;;;;;;;;4960503;28;20034;-81
2023/09/16 00:35:14;;;;;;;4.93;2.72;;;;;;;;;;4974318;28;20049;-81
2023/09/16 00:37:43;;;;;;;4.68;2.45;;;;;;;;;;4959609;28;20034;-82
2023/09/16 00:40:09;;;;;;;5.47;2.40;;;;;;;;;;4952199;28;20184;-81
2023/09/16 00:42:41;;;;;;;5.32;2.38;;;;;;;;;;4966959;28;20081;-81
2023/09/16 00:45:10;;;;;;;4.40;2.42;;;;;;;;;;4968502;28;20506;-81
2023/09/16 00:47:47;;;;;;;6.60;2.40;;;;;;;;;;4955902;28;20096;-81
2023/09/16 00:50:13;;;;;;;7.10;2.35;;;;;;;;;;4963708;28;20109;-81
2023/09/16 00:52:45;;;;;;;4.68;2.20;;;;;;;;;;4967773;28;20065;-81
2023/09/16 00:55:11;;;;;;;6.10;2.38;;;;;;;;;;4981868;28;21062;-81
2023/09/16 00:57:39;;;;;;;4.88;2.28;;;;;;;;;;4977438;28;20126;-82
2023/09/16 01:00:07;;;;;;;3.78;2.08;;;;;;;;;;4978836;28;20442;-81
2023/09/16 01:02:34;;;;;;;6.43;2.50;;;;;;;;;;4965833;28;20580;-81
2023/09/16 01:05:01;;;;;;;4.90;2.30;;;;;;;;;;4983049;28;20506;-81
2023/09/16 01:07:27;;;;;;;8.82;2.60;;;;;;;;;;4963679;28;20624;-81
2023/09/16 01:10:01;;;;;;;5.65;2.40;;;;;;;;;;4967620;28;20248;-81
2023/09/16 01:12:28;;;;;;;5.50;2.53;;;;;;;;;;4966347;28;20042;-81
2023/09/16 01:14:53;;;;;;;5.72;2.50;;;;;;;;;;4974053;28;20436;-82
2023/09/16 01:17:32;;;;;;;4.63;2.42;;;;;;;;;;4974570;28;20047;-81
2023/09/16 01:20:06;;;;;;;4.20;2.45;;;;;;;;;;4981621;28;20043;-82
2023/09/16 01:22:34;;;;;;;5.05;2.33;;;;;;;;;;4957604;28;20478;-81
2023/09/16 01:25:05;;;;;;;5.30;2.15;;;;;;;;;;4977663;28;20065;-82
2023/09/16 01:27:31;;;;;;;4.75;2.47;;;;;;;;;;4959449;28;20035;-81
2023/09/16 01:29:57;;;;;;;5.82;2.80;;;;;;;;;;4967412;28;20073;-81
2023/09/16 01:32:27;;;;;;;4.28;2.40;;;;;;;;;;4974309;28;20030;-81
2023/09/16 01:34:54;;;;;;;7.30;2.33;;;;;;;;;;4955589;28;20034;-82
2023/09/16 01:37:23;;;;;;;5.50;2.70;;;;;;;;;;4971821;28;20552;-81
2023/09/16 01:40:11;;;;;;;5.63;2.38;;;;;;;;;;4972731;28;20030;-82
2023/09/16 01:42:36;;;;;;;6.05;2.40;;;;;;;;;;4957533;28;20109;-81
2023/09/16 01:45:03;;;;;;;5.10;2.60;;;;;;;;;;4965057;28;20628;-81
2023/09/16 01:47:28;;;;;;;6.65;2.25;;;;;;;;;;4959149;28;20430;-83
2023/09/16 01:49:54;;;;;;;5.80;2.70;;;;;;;;;;4975882;28;20035;-82
2023/09/16 01:52:19;;;;;;;5.82;2.72;;;;;;;;;;4976867;28;20482;-81
2023/09/16 01:54:45;;;;;;;4.93;2.35;;;;;;;;;;4961147;28;20512;-82
2023/09/16 01:57:10;;;;;;;5.30;2.35;;;;;;;;;;4973803;28;20041;-82
2023/09/16 01:59:36;;;;;;;6.15;2.28;;;;;;;;;;4979296;28;20074;-82
2023/09/16 02:02:01;;;;;;;4.43;2.20;;;;;;;;;;4977021;28;20035;-82
2023/09/16 02:04:27;;;;;;;5.25;2.25;;;;;;;;;;4961551;28;20035;-81
2023/09/16 02:06:52;;;;;;;6.00;2.80;;;;;;;;;;4962928;28;20046;-81
2023/09/16 02:09:18;;;;;;;4.40;2.47;;;;;;;;;;4969703;28;20038;-83
2023/09/16 02:11:43;;;;;;;4.57;2.22;;;;;;;;;;4973412;28;20077;-81
2023/09/16 02:14:11;;;;;;;6.03;2.47;;;;;;;;;;4978061;28;20041;-81
2023/09/16 02:16:37;;;;;;;7.70;2.53;;;;;;;;;;4977614;28;20069;-82
2023/09/16 02:19:03;;;;;;;7.18;2.63;;;;;;;;;;4977691;28;20066;-82
2023/09/16 02:21:28;;;;;;;6.40;2.60;;;;;;;;;;4963555;28;20066;-83
2023/09/16 02:23:54;;;;;;;5.28;2.40;;;;;;;;;;4969757;28;20026;-81
2023/09/16 02:26:20;;;;;;;4.35;2.30;;;;;;;;;;4968126;28;20038;-81
2023/09/16 02:28:45;;;;;;;5.78;2.33;;;;;;;;;;4969308;28;20573;-83
2023/09/16 02:31:10;;;;;;;5.55;2.72;;;;;;;;;;4974340;28;20042;-81
2023/09/16 02:33:36;;;;;;;7.00;2.30;;;;;;;;;;4976268;28;20035;-82
2023/09/16 02:36:03;;;;;;;4.38;2.60;;;;;;;;;;4975313;28;20030;-82
2023/09/16 02:38:28;;;;;;;5.47;2.50;;;;;;;;;;4977458;28;20100;-82
2023/09/16 02:40:54;;;;;;;5.63;2.70;;;;;;;;;;4960365;28;20482;-82
2023/09/16 02:43:19;;;;;;;4.72;2.50;;;;;;;;;;4969777;28;20070;-82
2023/09/16 02:45:44;;;;;;;7.65;2.45;;;;;;;;;;4976582;28;20037;-82
2023/09/16 02:48:10;;;;;;;5.03;2.55;;;;;;;;;;4974674;28;20031;-82
2023/09/16 02:50:37;;;;;;;7.55;2.50;;;;;;;;;;4965517;28;20046;-82
2023/09/16 02:53:03;;;;;;;6.25;2.63;;;;;;;;;;4968680;28;20045;-83
2023/09/16 02:55:28;;;;;;;5.20;2.40;;;;;;;;;;4975996;28;20984;-84
2023/09/16 02:57:54;;;;;;;7.05;2.25;;;;;;;;;;4977067;28;20043;-82
2023/09/16 03:00:20;;;;;;;6.22;2.70;;;;;;;;;;4962308;28;20504;-82
2023/09/16 03:02:49;;;;;;;5.95;2.50;;;;;;;;;;4974924;28;20035;-82
2023/09/16 03:05:15;;;;;;;4.53;2.25;;;;;;;;;;4965022;28;20042;-82
2023/09/16 03:07:40;;;;;;;6.65;2.67;;;;;;;;;;4978908;28;20038;-82
2023/09/16 03:10:06;;;;;;;5.47;2.80;;;;;;;;;;4978869;28;20038;-81
2023/09/16 03:12:31;;;;;;;6.03;2.50;;;;;;;;;;4975185;28;20063;-82
2023/09/16 03:14:57;;;;;;;4.90;2.53;;;;;;;;;;4964979;28;20147;-82
2023/09/16 03:17:22;;;;;;;5.85;2.75;;;;;;;;;;4961325;28;20031;-82
2023/09/16 03:19:48;;;;;;;5.07;2.53;;;;;;;;;;4978885;28;20501;-82
2023/09/16 03:22:13;;;;;;;5.68;2.53;;;;;;;;;;4974712;28;20031;-82
2023/09/16 03:24:38;;;;;;;5.32;2.50;;;;;;;;;;4974046;28;20085;-82
2023/09/16 03:27:04;;;;;;;5.38;2.40;;;;;;;;;;4975856;28;20137;-81
2023/09/16 03:29:34;;;;;;;4.80;2.08;;;;;;;;;;4977062;28;20125;-81
2023/09/16 03:32:00;;;;;;;9.38;2.58;;;;;;;;;;4973716;28;20069;-82
2023/09/16 03:34:25;;;;;;;4.75;2.30;;;;;;;;;;4977339;28;20031;-82
2023/09/16 03:36:51;;;;;;;6.95;2.70;;;;;;;;;;4974027;28;20363;-81
2023/09/16 03:39:16;;;;;;;5.70;2.50;;;;;;;;;;4975252;28;20228;-81
2023/09/16 03:41:41;;;;;;;5.18;2.40;;;;;;;;;;4960097;28;20452;-82
2023/09/16 03:44:07;;;;;;;6.45;2.58;;;;;;;;;;4975796;28;20076;-82
2023/09/16 03:46:32;;;;;;;6.85;2.47;;;;;;;;;;4977348;28;20039;-81
2023/09/16 03:48:58;;;;;;;6.63;2.70;;;;;;;;;;4976362;28;20038;-82
2023/09/16 03:51:26;;;;;;;5.88;2.47;;;;;;;;;;4971364;28;20042;-81
2023/09/16 03:53:52;;;;;;;5.05;2.80;;;;;;;;;;4983614;28;20120;-81
2023/09/16 03:56:18;;;;;;;5.90;2.50;;;;;;;;;;4976808;28;20202;-82
2023/09/16 03:58:43;;;;;;;7.25;2.40;;;;;;;;;;4974649;28;20038;-84
2023/09/16 04:01:09;;;;;;;5.85;2.70;;;;;;;;;;4972035;28;20399;-81
2023/09/16 04:03:34;;;;;;;6.72;2.67;;;;;;;;;;4972798;28;20023;-82
2023/09/16 04:06:01;;;;;;;5.63;2.75;;;;;;;;;;4958288;28;20042;-82
2023/09/16 04:08:27;;;;;;;8.27;2.80;;;;;;;;;;4973329;28;20561;-82
2023/09/16 04:10:53;;;;;;;7.05;2.67;;;;;;;;;;4970923;28;20121;-82
2023/09/16 04:13:18;;;;;;;4.47;2.42;;;;;;;;;;4973575;28;20110;-83
2023/09/16 04:15:44;;;;;;;7.55;2.85;;;;;;;;;;4989702;28;20462;-81
2023/09/16 04:18:10;;;;;;;5.50;2.92;;;;;;;;;;4974945;28;20521;-81
2023/09/16 04:20:35;;;;;;;4.95;2.80;;;;;;;;;;4974329;28;20454;-81
2023/09/16 04:23:01;;;;;;;5.57;2.80;;;;;;;;;;4959127;28;20043;-83
2023/09/16 04:25:26;;;;;;;6.80;2.53;;;;;;;;;;4976148;28;20037;-82
2023/09/16 04:27:52;;;;;;;5.78;2.70;;;;;;;;;;4973378;28;20047;-81
2023/09/16 04:30:19;;;;;;;6.88;2.47;;;;;;;;;;4977893;28;20662;-81
2023/09/16 04:32:45;;;;;;;5.03;2.85;;;;;;;;;;4975558;28;20034;-81
2023/09/16 04:35:11;;;;;;;5.45;2.72;;;;;;;;;;4956859;28;20109;-82
2023/09/16 04:37:36;;;;;;;5.43;3.10;;;;;;;;;;4974514;28;20057;-82
2023/09/16 04:40:11;;;;;;;5.63;2.70;;;;;;;;;;4967259;28;20035;-81
2023/09/16 04:42:37;;;;;;;5.45;2.90;;;;;;;;;;4973661;28;20497;-80
2023/09/16 04:45:06;;;;;;;6.10;2.85;;;;;;;;;;4977129;28;20039;-80
2023/09/16 04:47:32;;;;;;;5.18;2.75;;;;;;;;;;4976795;28;20030;-79
2023/09/16 04:49:57;;;;;;;5.72;2.90;;;;;;;;;;4950391;28;20108;-81
2023/09/16 04:52:25;;;;;;;6.43;2.83;;;;;;;;;;4974067;28;20031;-82
2023/09/16 04:54:53;;;;;;;6.85;2.75;;;;;;;;;;4975921;28;20077;-81
2023/09/16 04:57:18;;;;;;;6.55;3.08;;;;;;;;;;4974047;28;20118;-82
2023/09/16 04:59:47;;;;;;;5.03;2.53;;;;;;;;;;4972137;28;20142;-82
2023/09/16 05:02:12;;;;;;;5.05;2.97;;;;;;;;;;4973112;28;20477;-81
2023/09/16 05:04:40;;;;;;;6.03;2.78;;;;;;;;;;4977687;28;20027;-82
2023/09/16 05:07:06;;;;;;;7.25;2.90;;;;;;;;;;4973718;28;20066;-82
2023/09/16 05:09:31;;;;;;;4.80;2.67;;;;;;;;;;4975767;28;20066;-81
2023/09/16 05:11:57;;;;;;;7.32;3.13;;;;;;;;;;4959480;28;20038;-81
2023/09/16 05:14:24;;;;;;;6.35;2.80;;;;;;;;;;4960650;28;20039;-82
2023/09/16 05:16:52;;;;;;;6.87;2.90;;;;;;;;;;4959278;28;20035;-79
2023/09/16 05:19:17;;;;;;;6.25;2.90;;;;;;;;;;4960657;28;20034;-79
2023/09/16 05:21:43;;;;;;;7.50;2.78;;;;;;;;;;4958637;28;20096;-79
2023/09/16 05:24:08;;;;;;;5.53;2.53;;;;;;;;;;4975314;28;20042;-79
2023/09/16 05:26:34;;;;;;;4.82;2.65;;;;;;;;;;4969595;28;20050;-77
2023/09/16 05:28:59;;;;;;;5.80;3.15;;;;;;;;;;4975047;28;20489;-78
2023/09/16 05:31:25;;;;;;;4.60;2.55;;;;;;;;;;4972390;28;20082;-78
2023/09/16 05:33:50;;;;;;;6.65;2.90;;;;;;;;;;4969670;28;20486;-78
2023/09/16 05:36:16;;;;;;;5.82;2.72;;;;;;;;;;4959997;28;20042;-78
2023/09/16 05:38:42;;;;;;;6.15;3.05;;;;;;;;;;4978517;28;20038;-78
2023/09/16 05:41:07;;;;;;;5.15;2.70;;;;;;;;;;4972214;28;20038;-78
2023/09/16 05:43:33;;;;;;;5.25;2.75;;;;;;;;;;4955819;28;20548;-78
2023/09/16 05:46:00;;;;;;;7.40;3.42;;;;;;;;;;4969400;28;20218;-78
2023/09/16 05:48:26;;;;;;;7.40;3.95;;;;;;;;;;4980638;28;20106;-79
2023/09/16 05:50:58;;;;;;;7.22;3.42;;;;;;;;;;4981382;28;20388;-79
2023/09/16 05:53:27;;;;;;;6.93;3.10;;;;;;;;;;4969289;28;20393;-79
2023/09/16 05:55:56;;;;;;;5.05;2.78;;;;;;;;;;4946805;28;20413;-79
2023/09/16 05:58:21;;;;;;;6.30;2.90;;;;;;;;;;4976566;28;20034;-79
2023/09/16 06:00:54;;;;;;;8.30;3.13;;;;;;;;;;4973500;28;20126;-78
2023/09/16 06:03:20;;;;;;;5.35;3.05;;;;;;;;;;4972812;28;20120;-79
2023/09/16 06:05:45;;;;;;;5.05;2.80;;;;;;;;;;4970048;28;20059;-79
2023/09/16 06:08:12;;;;;;;5.18;2.70;;;;;;;;;;4974591;28;20042;-78
2023/09/16 06:10:37;;;;;;;5.80;2.95;;;;;;;;;;4972695;28;20031;-79
2023/09/16 06:13:03;;;;;;;6.38;2.67;;;;;;;;;;4973871;28;20512;-79
2023/09/16 06:15:28;;;;;;;10.50;3.17;;;;;;;;;;4967404;28;20102;-79
2023/09/16 06:17:57;;;;;;;5.90;2.78;;;;;;;;;;4965127;28;20041;-78
2023/09/16 06:20:22;;;;;;;4.70;2.58;;;;;;;;;;4960092;28;20604;-79
2023/09/16 06:22:48;;;;;;;7.47;3.20;;;;;;;;;;4959577;28;20058;-78
2023/09/16 06:25:14;;;;;;;7.45;2.95;;;;;;;;;;4966238;28;20034;-79
2023/09/16 06:27:39;;;;;;;7.05;3.10;;;;;;;;;;4970023;28;20101;-78
2023/09/16 06:30:05;;;;;;;7.90;3.22;;;;;;;;;;4973077;28;20730;-78
2023/09/16 06:32:31;;;;;;;8.13;2.90;;;;;;;;;;4957736;28;20057;-78
2023/09/16 06:34:56;;;;;;;5.50;2.97;;;;;;;;;;4962094;28;20050;-79
2023/09/16 06:37:21;;;;;;;7.93;2.90;;;;;;;;;;4985690;28;20039;-79
2023/09/16 06:39:47;;;;;;;6.55;3.10;;;;;;;;;;4960399;28;20034;-79
2023/09/16 06:42:13;;;;;;;7.00;3.00;;;;;;;;;;4961707;28;20494;-79
2023/09/16 06:44:38;;;;;;;6.63;3.15;;;;;;;;;;4956558;28;20138;-80
2023/09/16 06:47:04;;;;;;;5.75;3.00;;;;;;;;;;4972986;28;20043;-79
2023/09/16 06:49:29;;;;;;;6.05;2.85;;;;;;;;;;4978334;28;20034;-79
2023/09/16 06:51:55;;;;;;;5.15;2.80;;;;;;;;;;4958783;28;20043;-79
2023/09/16 06:54:20;;;;;;;5.97;2.97;;;;;;;;;;4963577;28;20511;-80
2023/09/16 06:56:45;;;;;;;6.15;3.08;;;;;;;;;;4974754;28;20058;-79
2023/09/16 06:59:11;;;;;;;6.00;2.92;;;;;;;;;;4974528;28;20449;-79
2023/09/16 07:01:36;;;;;;;6.03;2.90;;;;;;;;;;4976021;28;20034;-79
2023/09/16 07:04:02;;;;;;;5.60;2.90;;;;;;;;;;4974190;28;20042;-79
2023/09/16 07:06:27;;;;;;;7.13;2.90;;;;;;;;;;4972570;28;20034;-79
2023/09/16 07:08:53;;;;;;;5.80;2.90;;;;;;;;;;4961845;28;20035;-80
2023/09/16 07:11:18;;;;;;;6.40;3.33;;;;;;;;;;4976320;28;20071;-77
2023/09/16 07:13:44;;;;;;;5.63;2.70;;;;;;;;;;4961873;28;20035;-78
2023/09/16 07:16:13;;;;;;;6.45;2.75;;;;;;;;;;4972942;28;20516;-78
2023/09/16 07:18:39;;;;;;;5.45;2.60;;;;;;;;;;4962553;28;20430;-79
2023/09/16 07:21:04;;;;;;;5.93;2.63;;;;;;;;;;4976774;28;20049;-79
2023/09/16 07:23:30;;;;;;;6.15;2.88;;;;;;;;;;4975281;28;20050;-79
2023/09/16 07:25:57;;;;;;;5.88;2.90;;;;;;;;;;4975775;28;20026;-79
2023/09/16 07:28:28;;;;;;;5.95;3.20;;;;;;;;;;4970150;28;20675;-79
2023/09/16 07:30:55;;;;;;;5.30;2.75;;;;;;;;;;4975683;28;20030;-79
2023/09/16 07:33:21;;;;;;;6.50;3.08;;;;;;;;;;4962204;28;20071;-80
2023/09/16 07:35:48;;;;;;;4.88;2.78;;;;;;;;;;4958372;28;20077;-80
2023/09/16 07:38:15;;;;;;;6.78;2.70;;;;;;;;;;4962031;28;20031;-80
2023/09/16 07:40:41;;;;;;;5.45;2.72;;;;;;;;;;4966447;28;20134;-81
2023/09/16 07:43:08;;;;;;;5.22;2.72;;;;;;;;;;4962090;28;20505;-79
2023/09/16 07:45:34;;;;;;;7.80;2.90;;;;;;;;;;4960579;28;20034;-79
2023/09/16 07:48:00;;;;;;;5.75;2.72;;;;;;;;;;4968267;28;20305;-80
2023/09/16 07:50:25;;;;;;;5.88;2.50;;;;;;;;;;4974100;28;20035;-80
2023/09/16 07:52:51;;;;;;;5.75;2.67;;;;;;;;;;4968422;28;20056;-79
2023/09/16 07:55:20;;;;;;;5.07;2.70;;;;;;;;;;4953889;28;20027;-79
2023/09/16 07:57:46;;;;;;;4.50;2.53;;;;;;;;;;4979845;28;20508;-80
2023/09/16 08:00:11;;;;;;;5.53;2.70;;;;;;;;;;4966919;28;20054;-80
2023/09/16 08:02:37;;;;;;;5.45;2.47;;;;;;;;;;4975800;28;20034;-80
2023/09/16 08:05:02;;;;;;;5.05;2.60;;;;;;;;;;4975527;28;20035;-79
2023/09/16 08:07:29;;;;;;;6.07;2.45;;;;;;;;;;4972666;28;20042;-80
2023/09/16 08:09:54;;;;;;;7.38;2.70;;;;;;;;;;4975451;28;20317;-80
2023/09/16 08:12:23;;;;;;;7.05;2.50;;;;;;;;;;4958454;28;20039;-80
2023/09/16 08:14:48;;;;;;;4.95;2.60;;;;;;;;;;4975369;28;20042;-79
2023/09/16 08:17:13;;;;;;;5.05;2.70;;;;;;;;;;4973139;28;20042;-79
2023/09/16 08:19:39;;;;;;;4.93;2.30;;;;;;;;;;4967865;28;20038;-80
2023/09/16 08:22:04;;;;;;;4.07;2.10;;;;;;;;;;4954683;28;20073;-80
2023/09/16 08:24:30;;;;;;;4.60;2.28;;;;;;;;;;4960399;28;20097;-80
2023/09/16 08:26:55;;;;;;;4.90;2.30;;;;;;;;;;4959820;28;20421;-80
2023/09/16 08:29:21;;;;;;;4.90;2.30;;;;;;;;;;4984001;28;20117;-83
2023/09/16 08:31:46;;;;;;;5.53;2.13;;;;;;;;;;4959558;28;20038;-84
2023/09/16 08:34:12;;;;;;;3.95;2.15;;;;;;;;;;4956132;28;20073;-84
2023/09/16 08:36:37;;;;;;;5.85;2.30;;;;;;;;;;4965756;28;20034;-84
2023/09/16 08:39:03;;;;;;;4.80;2.00;;;;;;;;;;4966174;28;20410;-85
2023/09/16 08:41:37;;;;;;;5.75;2.22;;;;;;;;;;4941126;28;20034;-85
2023/09/16 08:45:00;;;;;;;4.35;2.10;;;;;;;;;;4956423;28;20038;-86
2023/09/16 08:47:29;;;;;;;4.78;2.20;;;;;;;;;;4960727;28;20501;-85
2023/09/16 08:53:11;;;;;;;3.78;1.92;;;;;;;;;;4963696;28;20549;-86
2023/09/16 08:55:59;;;;;;;4.00;2.20;;;;;;;;;;4936365;28;20074;-88
2023/09/16 08:58:48;;;;;;;5.15;2.20;;;;;;;;;;4982090;28;20049;-87
2023/09/16 09:01:27;;;;;;;5.70;2.33;;;;;;;;;;4912300;28;20193;-87
2023/09/16 09:03:55;;;;;;;4.40;2.17;;;;;;;;;;4931731;28;20053;-87
2023/09/16 09:06:53;;;;;;;4.10;1.98;;;;;;;;;;4888192;28;20507;-87
2023/09/16 09:09:45;;;;;;;3.95;1.98;;;;;;;;;;4903485;28;20045;-87
2023/09/16 09:12:20;;;;;;;5.22;2.10;;;;;;;;;;4955265;28;20049;-86
2023/09/16 09:14:47;;;;;;;3.60;1.90;;;;;;;;;;4975476;28;20034;-87
2023/09/16 09:17:34;;;;;;;3.45;1.55;;;;;;;;;;4910810;28;20043;-86
2023/09/16 09:20:38;;;;;;;6.68;1.98;;;;;;;;;;4929901;28;20191;-86
2023/09/16 09:23:25;;;;;;;4.65;2.38;;;;;;;;;;4957376;28;20125;-87
2023/09/16 09:25:53;;;;;;;4.85;1.70;;;;;;;;;;4956781;28;20049;-85
2023/09/16 09:29:02;;;;;;;5.05;1.92;;;;;;;;;;4922792;28;20125;-86
2023/09/16 09:31:36;;;;;;;4.82;2.15;;;;;;;;;;4963641;28;20054;-86
2023/09/16 09:34:02;;;;;;;5.00;2.00;;;;;;;;;;4970649;28;20397;-87
2023/09/16 09:36:53;;;;;;;5.07;2.08;;;;;;;;;;4958278;28;20038;-85
2023/09/16 09:39:22;;;;;;;6.60;2.40;;;;;;;;;;4970805;28;20494;-85
2023/09/16 09:41:51;;;;;;;4.57;2.13;;;;;;;;;;4955863;28;20030;-86
2023/09/16 09:44:20;;;;;;;8.60;3.05;;;;;;;;;;4954602;28;20409;-85
2023/09/16 09:46:46;;;;;;;4.60;2.10;;;;;;;;;;4948870;28;20037;-86
2023/09/16 09:49:19;;;;;;;5.18;1.95;;;;;;;;;;4974722;28;20042;-85
2023/09/16 09:51:47;;;;;;;4.13;2.13;;;;;;;;;;4953072;28;20035;-86
2023/09/16 09:54:12;;;;;;;4.40;2.10;;;;;;;;;;4945932;28;20036;-84
2023/09/16 09:56:45;;;;;;;5.28;2.20;;;;;;;;;;4965264;28;20031;-85
2023/09/16 09:59:13;;;;;;;4.32;2.10;;;;;;;;;;4963203;28;20039;-83
2023/09/16 10:01:41;;;;;;;5.90;1.90;;;;;;;;;;4962381;28;20580;-85
2023/09/16 10:04:09;;;;;;;4.82;2.00;;;;;;;;;;4959809;28;20030;-84
2023/09/16 10:06:44;;;;;;;4.60;2.05;;;;;;;;;;4953882;28;20089;-84
2023/09/16 10:09:15;;;;;;;4.13;2.13;;;;;;;;;;4964743;28;20505;-84
2023/09/16 10:11:41;;;;;;;5.43;2.30;;;;;;;;;;4969138;28;20034;-86
2023/09/16 10:14:09;;;;;;;4.22;2.17;;;;;;;;;;4941555;28;20161;-85
2023/09/16 10:16:53;;;;;;;3.97;2.20;;;;;;;;;;4959064;28;20034;-85
2023/09/16 10:19:21;;;;;;;4.00;2.22;;;;;;;;;;4959267;28;20628;-85
2023/09/16 10:21:52;;;;;;;3.97;2.08;;;;;;;;;;4961463;28;20043;-85
2023/09/16 10:24:17;;;;;;;5.35;2.22;;;;;;;;;;4966691;28;20073;-84
2023/09/16 10:26:43;;;;;;;4.38;2.10;;;;;;;;;;4973401;28;20035;-84
2023/09/16 10:29:08;;;;;;;3.65;2.00;;;;;;;;;;4968775;28;20042;-86
2023/09/16 10:31:34;;;;;;;5.00;2.20;;;;;;;;;;4962615;28;20425;-84
2023/09/16 10:34:02;;;;;;;3.67;2.03;;;;;;;;;;4983108;28;20039;-85
2023/09/16 10:36:28;;;;;;;5.95;2.45;;;;;;;;;;4961471;28;20489;-86
2023/09/16 10:38:54;;;;;;;4.50;2.17;;;;;;;;;;4963013;28;20060;-87
2023/09/16 10:41:23;;;;;;;4.07;2.45;;;;;;;;;;4959236;28;20573;-86
2023/09/16 10:43:49;;;;;;;5.05;2.20;;;;;;;;;;4970272;28;20097;-89
2023/09/16 10:46:19;;;;;;;4.53;1.92;;;;;;;;;;4966301;28;20038;-91
2023/09/16 10:48:46;;;;;;;4.65;2.30;;;;;;;;;;4964532;28;20118;-93
2023/09/16 10:51:23;;;;;;;4.90;2.33;;;;;;;;;;4962354;28;20042;-88
2023/09/16 10:53:58;;;;;;;6.35;2.22;;;;;;;;;;4975270;28;20035;-86
2023/09/16 10:56:32;;;;;;;6.82;2.20;;;;;;;;;;4967165;28;20122;-87
2023/09/16 10:59:03;;;;;;;3.88;2.00;;;;;;;;;;4974692;28;20547;-83
2023/09/16 11:01:31;;;;;;;4.97;2.10;;;;;;;;;;4958180;28;20030;-85
2023/09/16 11:04:11;;;;;;;3.97;1.75;;;;;;;;;;4956126;28;20050;-87
2023/09/16 11:06:36;;;;;;;4.40;2.28;;;;;;;;;;4959079;28;20418;-81
2023/09/16 11:09:02;;;;;;;5.32;1.80;;;;;;;;;;4976248;28;20100;-80
2023/09/16 11:11:28;;;;;;;5.67;1.80;;;;;;;;;;4973589;28;20113;-83
2023/09/16 11:13:58;;;;;;;8.77;2.67;;;;;;;;;;4978278;28;20046;-92
2023/09/16 11:16:23;;;;;;;5.20;1.95;;;;;;;;;;4960684;28;20034;-85
2023/09/16 11:18:56;;;;;;;4.77;1.97;;;;;;;;;;4973140;28;20030;-87
2023/09/16 11:21:22;;;;;;;4.03;1.80;;;;;;;;;;4974580;28;20493;-84
2023/09/16 11:23:48;;;;;;;4.72;1.60;;;;;;;;;;4952667;28;20062;-77
2023/09/16 11:26:23;;;;;;;4.93;2.00;;;;;;;;;;4971953;28;20038;-79
2023/09/16 11:28:52;;;;;;;3.93;1.67;;;;;;;;;;4947307;28;20042;-79
2023/09/16 11:31:18;;;;;;;3.42;1.60;;;;;;;;;;4981491;28;20060;-83
2023/09/16 11:34:02;;;;;;;3.90;1.70;;;;;;;;;;4962071;28;20401;-85
2023/09/16 11:36:32;;;;;;;4.65;1.80;;;;;;;;;;4956559;28;20282;-85
2023/09/16 11:39:07;;;;;;;5.07;1.55;;;;;;;;;;4978179;28;20049;-85
2023/09/16 11:41:33;;;;;;;3.92;1.73;;;;;;;;;;4975614;28;20031;-86
2023/09/16 11:43:59;;;;;;;3.17;1.70;;;;;;;;;;4960193;28;20413;-84
2023/09/16 11:46:26;;;;;;;3.85;1.88;;;;;;;;;;4960532;28;20411;-85
2023/09/16 11:48:54;;;;;;;4.20;1.75;;;;;;;;;;4957728;28;20042;-85
2023/09/16 11:51:23;;;;;;;3.45;1.60;;;;;;;;;;4965073;28;20034;-85
2023/09/16 11:53:51;;;;;;;3.83;1.80;;;;;;;;;;4956349;28;20042;-85
2023/09/16 11:56:17;;;;;;;4.35;2.20;;;;;;;;;;4954433;28;20034;-85
2023/09/16 11:58:44;;;;;;;5.07;1.98;;;;;;;;;;4974680;28;20115;-86
2023/09/16 12:01:13;;;;;;;3.75;1.60;;;;;;;;;;4960388;28;20033;-86
2023/09/16 12:03:42;;;;;;;4.55;1.90;;;;;;;;;;4960838;28;20042;-86
2023/09/16 12:06:09;;;;;;;4.95;2.00;;;;;;;;;;4957681;28;20493;-85
2023/09/16 12:08:34;;;;;;;4.57;2.13;;;;;;;;;;4970896;28;20039;-87
2023/09/16 12:11:00;;;;;;;4.05;2.00;;;;;;;;;;4965244;28;20122;-83
2023/09/16 12:13:30;;;;;;;3.58;1.85;;;;;;;;;;4960273;28;20030;-86
2023/09/16 12:15:55;;;;;;;3.50;1.88;;;;;;;;;;4960853;28;20031;-85
2023/09/16 12:18:21;;;;;;;6.78;2.28;;;;;;;;;;4974097;28;20088;-81
2023/09/16 12:20:47;;;;;;;3.78;2.17;;;;;;;;;;4972145;28;20043;-88
2023/09/16 12:23:14;;;;;;;3.92;2.20;;;;;;;;;;4975165;28;20045;-88
2023/09/16 12:25:43;;;;;;;6.80;2.35;;;;;;;;;;4951630;28;20552;-89
2023/09/16 12:28:09;;;;;;;3.90;2.17;;;;;;;;;;4955697;28;20068;-87
2023/09/16 12:30:44;;;;;;;4.80;2.30;;;;;;;;;;4966568;28;20041;-89
2023/09/16 12:33:10;;;;;;;5.35;2.00;;;;;;;;;;4975726;28;20044;-88
2023/09/16 12:35:39;;;;;;;3.97;2.40;;;;;;;;;;4973759;28;20481;-87
2023/09/16 12:38:05;;;;;;;3.80;2.22;;;;;;;;;;4974309;28;20042;-83
2023/09/16 12:40:53;;;;;;;5.35;2.15;;;;;;;;;;4964820;28;20039;-84
2023/09/16 12:43:19;;;;;;;4.95;2.35;;;;;;;;;;4954468;28;20039;-83
2023/09/16 12:45:44;;;;;;;5.60;2.30;;;;;;;;;;4946996;28;20045;-85
2023/09/16 12:48:10;;;;;;;4.75;2.38;;;;;;;;;;4971145;28;20150;-84
2023/09/16 12:50:36;;;;;;;4.70;2.38;;;;;;;;;;4951269;28;20502;-84
2023/09/16 12:53:01;;;;;;;4.93;2.50;;;;;;;;;;4956412;28;20540;-83
2023/09/16 12:55:27;;;;;;;4.57;2.28;;;;;;;;;;4956146;28;20043;-83
2023/09/16 12:57:53;;;;;;;3.90;2.10;;;;;;;;;;4944688;28;20049;-83
2023/09/16 13:00:23;;;;;;;7.15;2.50;;;;;;;;;;4973050;28;20146;-82
2023/09/16 13:02:49;;;;;;;4.00;2.50;;;;;;;;;;4962097;28;20149;-83
2023/09/16 13:05:29;;;;;;;6.68;2.72;;;;;;;;;;4944646;28;20449;-84
2023/09/16 13:07:56;;;;;;;3.67;2.45;;;;;;;;;;4972492;28;20425;-83
2023/09/16 13:10:22;;;;;;;;;;;;;;;;;;4966701;28;20038;-84
2023/09/16 13:12:48;;;;;;;4.47;2.80;;;;;;;;;;4936356;28;19925;-82
2023/09/16 13:15:17;;;;;;;4.57;2.35;;;;;;;;;;4961496;28;20034;-85
2023/09/16 13:17:44;;;;;;;4.53;2.60;;;;;;;;;;4928322;28;20062;-87
2023/09/16 13:20:16;;;;;;;5.72;3.08;;;;;;;;;;4948921;28;20080;-89
2023/09/16 13:22:43;;;;;;;4.93;2.45;;;;;;;;;;4955613;28;20081;-84
2023/09/16 13:25:28;;;;;;;4.32;2.30;;;;;;;;;;4965690;28;20047;-84
2023/09/16 13:28:12;;;;;;;3.55;2.40;;;;;;;;;;4951893;28;20074;-84
2023/09/16 13:30:43;;;;;;;3.95;2.20;;;;;;;;;;4963241;28;20549;-86
2023/09/16 13:33:09;;;;;;;4.38;2.50;;;;;;;;;;4952418;28;20038;-86
2023/09/16 13:35:36;;;;;;;4.13;2.50;;;;;;;;;;4956243;28;20161;-84
2023/09/16 13:38:03;;;;;;;5.15;2.20;;;;;;;;;;4964146;28;20042;-85
2023/09/16 13:40:31;;;;;;;4.47;2.47;;;;;;;;;;4972263;28;20031;-86
2023/09/16 13:42:58;;;;;;;4.50;2.20;;;;;;;;;;4959435;28;20085;-85
2023/09/16 13:45:23;;;;;;;3.40;2.05;;;;;;;;;;4967322;28;20046;-86
2023/09/16 13:48:15;;;;;;;4.78;2.33;;;;;;;;;;4967895;28;20474;-83
2023/09/16 13:50:42;;;;;;;4.32;2.45;;;;;;;;;;4967741;28;20575;-85
2023/09/16 13:53:12;;;;;;;5.85;2.83;;;;;;;;;;4952271;28;20113;-84
2023/09/16 13:55:38;;;;;;;3.92;2.30;;;;;;;;;;4979430;28;20097;-84
2023/09/16 13:58:04;;;;;;;3.75;2.63;;;;;;;;;;4968607;28;20038;-85
2023/09/16 14:00:39;;;;;;;4.40;2.28;;;;;;;;;;4961027;28;20042;-86
2023/09/16 14:03:05;;;;;;;3.97;2.25;;;;;;;;;;4963667;28;20814;-83
2023/09/16 14:05:35;;;;;;;3.72;2.20;;;;;;;;;;4966959;28;20069;-84
2023/09/16 14:08:01;;;;;;;4.05;2.38;;;;;;;;;;4967066;28;20373;-85
2023/09/16 14:10:28;;;;;;;4.80;2.40;;;;;;;;;;4963681;28;20054;-85
2023/09/16 14:13:06;;;;;;;3.40;2.30;;;;;;;;;;4951624;28;20090;-85
2023/09/16 14:15:35;;;;;;;4.25;2.28;;;;;;;;;;4977376;28;20061;-79
2023/09/16 14:18:00;;;;;;;3.97;2.60;;;;;;;;;;4984551;28;20042;-80
2023/09/16 14:20:32;;;;;;;3.75;2.30;;;;;;;;;;4967398;28;20544;-80
2023/09/16 14:22:59;;;;;;;4.78;2.65;;;;;;;;;;4944921;28;20500;-81
2023/09/16 14:25:29;;;;;;;5.05;2.00;;;;;;;;;;4977174;28;20042;-81
2023/09/16 14:27:54;;;;;;;3.35;2.10;;;;;;;;;;4962929;28;20043;-82
2023/09/16 14:30:20;;;;;;;4.93;2.28;;;;;;;;;;4975358;28;20112;-80
2023/09/16 14:32:46;;;;;;;5.53;2.40;;;;;;;;;;4932906;28;20077;-80
2023/09/16 14:35:14;;;;;;;4.30;2.05;;;;;;;;;;4985514;28;20137;-80
2023/09/16 14:37:40;;;;;;;4.72;2.40;;;;;;;;;;4967086;28;20045;-80
2023/09/16 14:40:06;;;;;;;3.88;2.20;;;;;;;;;;4985895;28;20576;-80
2023/09/16 14:42:31;;;;;;;4.78;2.40;;;;;;;;;;4970389;28;20031;-81
2023/09/16 14:45:00;;;;;;;4.13;2.33;;;;;;;;;;4963112;28;20045;-80
2023/09/16 14:47:29;;;;;;;4.40;2.30;;;;;;;;;;4976540;28;20089;-80
2023/09/16 14:49:56;;;;;;;3.33;2.25;;;;;;;;;;4976624;28;20097;-81
2023/09/16 14:52:21;;;;;;;3.88;2.08;;;;;;;;;;4974898;28;20030;-81